Terminal Aerodrome Forecast
Issued by NWS

Home | Current Version | Previous Version | Text Only | Print | Product List | Glossary On
Versions: 1 2 3 4 5 6 7 8 9 10 11 12 13 14 15 16 17 18 19 20 21
000
FTUS46 KSEW 171126
TAFHQM
TAF
KHQM 171126Z 1712/1812 25008KT P6SM OVC025
     FM171800 25008KT P6SM BKN035
     FM172000 25012KT P6SM SCT035 SCT250
     FM180700 25008KT P6SM BKN030=

USA.gov is the U.S. government's official web portal to all federal, state and local government web resources and services.